createdAt,value
2022-11-19T00:00:22.692Z,26.40
2022-11-19T00:02:55.164Z,26.00
2022-11-19T00:05:24.487Z,20.93
2022-11-19T00:07:54.386Z,27.10
2022-11-19T00:10:23.775Z,20.70
2022-11-19T00:12:55.013Z,24.20
2022-11-19T00:15:24.937Z,23.98
2022-11-19T00:17:55.583Z,23.70
2022-11-19T00:20:25.201Z,23.75
2022-11-19T00:22:57.293Z,22.38
2022-11-19T00:25:28.418Z,24.17
2022-11-19T00:27:58.520Z,20.42
2022-11-19T00:30:46.990Z,20.83
2022-11-19T00:33:18.784Z,20.13
2022-11-19T00:35:48.075Z,23.02
2022-11-19T00:38:17.337Z,21.98
2022-11-19T00:40:46.588Z,25.45
2022-11-19T00:43:33.468Z,21.43
2022-11-19T00:46:02.790Z,21.55
2022-11-19T00:48:33.906Z,19.17
2022-11-19T00:51:03.322Z,26.50
2022-11-19T00:53:32.620Z,27.60
2022-11-19T00:56:02.943Z,24.10
2022-11-19T00:58:32.686Z,23.33
2022-11-19T01:01:02.042Z,22.02
2022-11-19T01:03:33.499Z,21.20
2022-11-19T01:06:02.985Z,25.48
2022-11-19T01:08:32.419Z,14.13
2022-11-19T01:11:06.308Z,21.17
2022-11-19T01:13:36.534Z,20.70
2022-11-19T01:16:08.990Z,27.70
2022-11-19T01:18:40.578Z,24.40
2022-11-19T01:21:11.327Z,23.23
2022-11-19T01:23:41.356Z,18.63
2022-11-19T01:26:11.373Z,27.15
2022-11-19T01:28:40.849Z,27.25
2022-11-19T01:31:11.677Z,22.52
2022-11-19T01:33:42.738Z,19.07
2022-11-19T01:36:14.745Z,23.70
2022-11-19T01:38:44.475Z,24.38
2022-11-19T01:41:13.792Z,18.73
2022-11-19T01:43:46.154Z,22.80
2022-11-19T01:46:17.018Z,22.43
2022-11-19T01:48:50.914Z,20.25
2022-11-19T01:51:24.481Z,20.42
2022-11-19T01:53:57.189Z,20.55
2022-11-19T01:56:27.233Z,21.40
2022-11-19T01:59:01.495Z,19.37
2022-11-19T02:01:32.551Z,20.50
2022-11-19T02:04:04.943Z,21.40
2022-11-19T02:06:36.037Z,19.60
2022-11-19T02:09:05.421Z,19.38
2022-11-19T02:12:02.479Z,20.37
2022-11-19T02:15:04.743Z,19.90
2022-11-19T02:17:52.708Z,20.23
2022-11-19T02:20:42.633Z,20.23
2022-11-19T02:23:45.974Z,16.80
2022-11-19T02:26:46.802Z,16.10
2022-11-19T02:29:32.385Z,19.75
2022-11-19T02:32:09.742Z,21.65
2022-11-19T02:34:45.466Z,20.23
2022-11-19T02:37:22.797Z,19.92
2022-11-19T02:39:55.980Z,18.33
2022-11-19T02:42:31.009Z,18.33
2022-11-19T02:45:04.490Z,18.00
2022-11-19T02:47:38.594Z,19.48
2022-11-19T02:50:12.547Z,20.73
2022-11-19T02:52:44.501Z,21.73
2022-11-19T02:55:14.928Z,19.75
2022-11-19T02:57:46.568Z,20.67
2022-11-19T03:00:33.566Z,19.33
2022-11-19T03:03:27.325Z,15.27
2022-11-19T03:06:03.297Z,18.63
2022-11-19T03:08:33.356Z,17.15
2022-11-19T03:11:09.948Z,18.73
2022-11-19T03:14:07.367Z,13.82
2022-11-19T03:16:44.016Z,19.55
2022-11-19T03:19:24.827Z,15.50
2022-11-19T03:21:58.504Z,22.02
2022-11-19T03:24:32.607Z,22.27
2022-11-19T03:27:06.926Z,18.45
2022-11-19T03:29:40.367Z,17.38
2022-11-19T03:32:14.607Z,17.53
2022-11-19T03:34:49.015Z,15.45
2022-11-19T03:37:21.883Z,19.20
2022-11-19T03:39:53.802Z,16.73
2022-11-19T03:42:26.385Z,17.63
2022-11-19T03:45:00.918Z,18.23
2022-11-19T03:47:35.114Z,20.17
2022-11-19T03:50:13.185Z,20.10
2022-11-19T03:52:44.638Z,19.45
2022-11-19T03:55:14.539Z,14.65
2022-11-19T03:57:44.650Z,16.23
2022-11-19T04:00:14.654Z,20.00
2022-11-19T04:02:44.427Z,16.40
2022-11-19T04:05:16.212Z,20.27
2022-11-19T04:07:45.487Z,16.83
2022-11-19T04:10:14.923Z,18.00
2022-11-19T04:12:44.322Z,14.90
2022-11-19T04:15:14.740Z,16.05
2022-11-19T04:17:44.019Z,16.15
2022-11-19T04:20:15.272Z,20.13
2022-11-19T04:22:44.792Z,17.23
2022-11-19T04:25:14.119Z,15.55
2022-11-19T04:27:43.575Z,13.73
2022-11-19T04:30:13.889Z,16.67
2022-11-19T04:32:43.925Z,13.85
2022-11-19T04:35:14.680Z,10.20
2022-11-19T04:37:43.977Z,15.80
2022-11-19T04:40:14.348Z,15.20
2022-11-19T04:42:43.646Z,16.38
2022-11-19T04:45:12.994Z,13.65
2022-11-19T04:47:42.287Z,14.07
2022-11-19T04:50:12.845Z,14.00
2022-11-19T04:52:43.607Z,14.93
2022-11-19T04:55:12.847Z,13.98
2022-11-19T04:57:42.684Z,14.13
2022-11-19T05:00:13.207Z,15.17
2022-11-19T05:02:42.425Z,14.05
2022-11-19T05:05:11.778Z,15.23
2022-11-19T05:07:41.279Z,14.52
2022-11-19T05:10:12.483Z,11.98
2022-11-19T05:12:41.764Z,12.73
2022-11-19T05:15:11.955Z,13.38
2022-11-19T05:17:41.153Z,13.90
2022-11-19T05:20:11.161Z,13.25
2022-11-19T05:22:40.810Z,10.60
2022-11-19T05:25:11.647Z,11.77
2022-11-19T05:27:40.917Z,12.05
2022-11-19T05:30:11.748Z,13.95
2022-11-19T05:32:41.046Z,12.18
2022-11-19T05:35:11.319Z,13.15
2022-11-19T05:37:40.785Z,13.60
2022-11-19T05:40:12.434Z,12.27
2022-11-19T05:42:41.696Z,11.88
2022-11-19T05:45:11.993Z,13.18
2022-11-19T05:47:44.691Z,11.88
2022-11-19T05:50:18.139Z,11.67
2022-11-19T05:52:52.484Z,10.27
2022-11-19T05:55:23.144Z,13.35
2022-11-19T05:57:52.570Z,12.75
2022-11-19T06:00:22.068Z,11.88
2022-11-19T06:02:51.503Z,11.83
2022-11-19T06:05:20.798Z,12.13
2022-11-19T06:07:50.130Z,13.07
2022-11-19T06:10:19.690Z,11.43
2022-11-19T06:12:50.729Z,13.32
2022-11-19T06:15:20.295Z,12.27
2022-11-19T06:17:49.676Z,13.10
2022-11-19T06:20:19.598Z,13.35
2022-11-19T06:23:09.059Z,12.52
2022-11-19T06:25:38.339Z,13.98
2022-11-19T06:28:09.069Z,14.77
2022-11-19T06:30:38.411Z,12.70
2022-11-19T06:33:07.777Z,11.82
2022-11-19T06:35:37.044Z,13.48
2022-11-19T06:38:06.485Z,11.93
2022-11-19T06:40:35.725Z,13.80
2022-11-19T06:43:05.314Z,15.52
2022-11-19T06:45:35.966Z,11.35
2022-11-19T06:48:05.887Z,14.40
2022-11-19T06:50:35.184Z,14.80
2022-11-19T06:53:04.570Z,13.60
2022-11-19T06:55:33.822Z,13.40
2022-11-19T06:58:04.067Z,14.52
2022-11-19T07:00:33.807Z,13.77
2022-11-19T07:03:04.727Z,15.15
2022-11-19T07:05:33.988Z,14.20
2022-11-19T07:08:03.634Z,15.35
2022-11-19T07:10:33.965Z,13.95
2022-11-19T07:13:03.548Z,13.82
2022-11-19T07:15:32.991Z,15.13
2022-11-19T07:18:02.925Z,16.20
2022-11-19T07:20:34.250Z,19.75
2022-11-19T07:23:03.721Z,15.68
2022-11-19T07:25:33.042Z,17.15
2022-11-19T07:28:02.339Z,16.70
2022-11-19T07:30:31.849Z,15.20
2022-11-19T07:33:01.116Z,15.98
2022-11-19T07:35:30.309Z,17.33
2022-11-19T07:38:01.014Z,17.48
2022-11-19T07:40:30.298Z,15.80
2022-11-19T07:42:58.502Z,15.40
2022-11-19T07:45:28.540Z,14.88
2022-11-19T07:47:57.838Z,14.77
2022-11-19T07:50:27.247Z,12.57
2022-11-19T07:53:00.981Z,14.15
2022-11-19T07:55:30.287Z,12.77
2022-11-19T07:57:59.628Z,12.45
2022-11-19T08:00:29.165Z,16.02
2022-11-19T08:02:58.590Z,11.68
2022-11-19T08:05:28.077Z,11.30
2022-11-19T08:07:57.360Z,10.50
2022-11-19T08:10:31.777Z,11.80
2022-11-19T08:13:07.187Z,11.07
2022-11-19T08:15:36.535Z,13.02
2022-11-19T08:18:14.128Z,12.60
2022-11-19T08:20:44.287Z,12.07
2022-11-19T08:23:13.888Z,11.73
2022-11-19T08:25:45.672Z,11.00
2022-11-19T08:28:14.931Z,13.68
2022-11-19T08:30:45.640Z,12.32
2022-11-19T08:33:17.949Z,11.03
2022-11-19T08:35:47.297Z,12.88
2022-11-19T08:38:16.590Z,10.73
2022-11-19T08:40:52.804Z,11.63
2022-11-19T08:43:21.238Z,11.10
2022-11-19T08:45:54.977Z,12.53
2022-11-19T08:48:24.244Z,10.70
2022-11-19T08:50:53.697Z,10.63
2022-11-19T08:53:23.167Z,13.40
2022-11-19T08:55:53.937Z,9.93
2022-11-19T08:58:23.475Z,10.90
2022-11-19T09:00:53.048Z,10.98
2022-11-19T09:03:22.489Z,8.88
2022-11-19T09:05:51.858Z,9.68
2022-11-19T09:08:21.157Z,9.10
2022-11-19T09:10:50.577Z,9.27
2022-11-19T09:13:21.408Z,9.00
2022-11-19T09:15:50.919Z,9.32
2022-11-19T09:18:20.525Z,8.93
2022-11-19T09:20:55.490Z,9.25
2022-11-19T09:23:26.195Z,8.90
2022-11-19T09:25:59.344Z,8.73
2022-11-19T09:28:31.604Z,14.50
2022-11-19T09:31:02.794Z,8.82
2022-11-19T09:33:33.821Z,8.40
2022-11-19T09:36:03.587Z,6.97
2022-11-19T09:38:35.240Z,6.80
2022-11-19T09:41:24.996Z,7.80
2022-11-19T09:44:07.128Z,7.82
2022-11-19T09:46:45.631Z,9.52
2022-11-19T09:49:18.656Z,9.30
2022-11-19T09:51:54.539Z,9.02
2022-11-19T09:54:25.023Z,9.05
2022-11-19T09:57:01.872Z,9.02
2022-11-19T09:59:40.647Z,8.48
2022-11-19T10:02:18.735Z,7.47
2022-11-19T10:04:50.747Z,7.53
2022-11-19T10:07:30.176Z,8.45
2022-11-19T10:10:12.884Z,8.07
2022-11-19T10:13:12.946Z,8.70
2022-11-19T10:15:57.967Z,8.90
2022-11-19T10:18:38.746Z,8.77
2022-11-19T10:21:13.676Z,9.32
2022-11-19T10:23:54.778Z,8.88
2022-11-19T10:26:31.078Z,8.65
2022-11-19T10:29:00.437Z,8.70
2022-11-19T10:31:38.313Z,8.52
2022-11-19T10:34:15.311Z,8.38
2022-11-19T10:36:48.580Z,9.05
2022-11-19T10:39:24.667Z,9.95
2022-11-19T10:41:57.288Z,8.33
2022-11-19T10:44:40.664Z,9.68
2022-11-19T10:47:18.901Z,8.05
2022-11-19T10:49:54.292Z,9.52
2022-11-19T10:52:35.104Z,10.13
2022-11-19T10:55:13.930Z,7.80
2022-11-19T10:57:44.028Z,8.02
2022-11-19T11:00:15.693Z,9.27
2022-11-19T11:02:50.987Z,9.40
2022-11-19T11:05:22.707Z,6.70
2022-11-19T11:07:55.369Z,7.77
2022-11-19T11:10:37.923Z,7.28
2022-11-19T11:13:32.712Z,9.82
2022-11-19T11:16:08.232Z,9.65
2022-11-19T11:18:41.498Z,8.05
2022-11-19T11:21:26.036Z,8.27
2022-11-19T11:23:56.883Z,7.75
2022-11-19T11:26:28.249Z,7.00
2022-11-19T11:29:08.291Z,7.80
2022-11-19T11:31:40.586Z,7.97
2022-11-19T11:34:30.941Z,7.87
2022-11-19T11:37:02.736Z,7.47
2022-11-19T11:39:34.178Z,7.72
2022-11-19T11:42:06.345Z,8.00
2022-11-19T11:44:39.667Z,6.35
2022-11-19T11:47:14.579Z,7.20
2022-11-19T11:49:46.948Z,7.93
2022-11-19T11:52:21.571Z,7.22
2022-11-19T11:54:59.589Z,8.50
2022-11-19T11:57:30.703Z,7.55
2022-11-19T12:00:00.406Z,6.60
2022-11-19T12:02:31.670Z,7.85
2022-11-19T12:05:04.625Z,7.35
2022-11-19T12:08:04.335Z,8.02
2022-11-19T12:10:46.700Z,7.82
2022-11-19T12:13:48.973Z,7.80
2022-11-19T12:16:29.177Z,7.68
2022-11-19T12:19:12.131Z,8.52
2022-11-19T12:21:51.428Z,6.50
2022-11-19T12:24:36.718Z,6.70
2022-11-19T12:27:21.278Z,7.13
2022-11-19T12:30:00.139Z,8.52
2022-11-19T12:32:51.656Z,6.85
2022-11-19T12:35:42.041Z,6.35
2022-11-19T12:38:41.961Z,7.30
2022-11-19T12:41:31.737Z,6.60
2022-11-19T12:44:03.607Z,6.47
2022-11-19T12:46:50.210Z,6.72
2022-11-19T12:49:52.880Z,7.22
2022-11-19T12:52:37.526Z,5.10
2022-11-19T12:55:16.485Z,6.97
2022-11-19T12:57:52.578Z,6.72
2022-11-19T13:00:23.506Z,6.05
2022-11-19T13:03:05.935Z,5.80
2022-11-19T13:05:43.103Z,5.65
2022-11-19T13:08:19.497Z,5.57
2022-11-19T13:10:54.326Z,5.57
2022-11-19T13:13:29.312Z,4.68
2022-11-19T13:16:01.864Z,5.32
2022-11-19T13:18:34.137Z,5.60
2022-11-19T13:21:07.212Z,6.50
2022-11-19T13:23:41.555Z,4.95
2022-11-19T13:26:16.097Z,4.63
2022-11-19T13:28:50.061Z,5.40
2022-11-19T13:31:31.254Z,6.13
2022-11-19T13:34:07.444Z,5.73
2022-11-19T13:36:43.840Z,5.63
2022-11-19T13:39:18.105Z,5.50
2022-11-19T13:42:28.839Z,6.50
2022-11-19T13:44:58.266Z,6.00
2022-11-19T13:47:32.487Z,6.33
2022-11-19T13:50:07.030Z,7.90
2022-11-19T13:52:40.551Z,8.30
2022-11-19T13:55:31.026Z,6.65
2022-11-19T13:58:13.255Z,7.45
2022-11-19T14:00:44.740Z,7.07
2022-11-19T14:03:31.267Z,6.63
2022-11-19T14:06:35.737Z,5.97
2022-11-19T14:09:17.570Z,6.65
2022-11-19T14:12:04.017Z,7.13
2022-11-19T14:15:06.239Z,6.47
2022-11-19T14:18:01.188Z,7.18
2022-11-19T14:20:54.218Z,6.45
2022-11-19T14:24:00.640Z,6.35
2022-11-19T14:27:09.585Z,7.07
2022-11-19T14:30:01.149Z,7.20
2022-11-19T14:32:33.444Z,6.78
2022-11-19T14:35:42.527Z,7.95
2022-11-19T14:38:37.214Z,6.40
2022-11-19T14:41:26.541Z,5.93
2022-11-19T14:44:36.121Z,6.90
2022-11-19T14:47:34.474Z,6.43
2022-11-19T14:50:08.517Z,8.52
2022-11-19T14:52:40.797Z,5.78
2022-11-19T14:55:22.778Z,6.28
2022-11-19T14:57:59.466Z,7.37
2022-11-19T15:00:32.525Z,5.97
2022-11-19T15:03:06.177Z,5.78
2022-11-19T15:05:40.775Z,7.47
2022-11-19T15:08:44.688Z,6.20
2022-11-19T15:11:15.552Z,6.63
2022-11-19T15:13:46.138Z,6.45
2022-11-19T15:16:18.239Z,9.55
2022-11-19T15:19:28.727Z,6.72
2022-11-19T15:22:31.315Z,7.63
2022-11-19T15:25:23.845Z,8.47
2022-11-19T15:28:06.216Z,7.07
2022-11-19T15:30:55.590Z,7.15
2022-11-19T15:33:47.499Z,7.15
2022-11-19T15:36:39.852Z,7.93
2022-11-19T15:39:17.048Z,7.57
2022-11-19T15:42:00.749Z,7.60
2022-11-19T15:44:41.013Z,7.45
2022-11-19T15:47:15.965Z,7.35
2022-11-19T15:49:46.807Z,6.95
2022-11-19T15:52:25.396Z,6.57
2022-11-19T15:55:12.278Z,6.75
2022-11-19T15:57:44.461Z,7.32
2022-11-19T16:00:19.926Z,6.75
2022-11-19T16:02:51.224Z,6.78
2022-11-19T16:05:23.166Z,7.63
2022-11-19T16:07:54.690Z,7.35
2022-11-19T16:10:29.124Z,7.68
2022-11-19T16:13:17.675Z,7.63
2022-11-19T16:16:08.657Z,8.43
2022-11-19T16:18:47.557Z,8.63
2022-11-19T16:21:22.798Z,7.65
2022-11-19T16:24:11.289Z,6.72
2022-11-19T16:26:42.321Z,7.28
2022-11-19T16:29:18.316Z,8.40
2022-11-19T16:31:50.800Z,7.00
2022-11-19T16:34:24.286Z,7.57
2022-11-19T16:36:54.708Z,6.95
2022-11-19T16:39:27.813Z,7.00
2022-11-19T16:42:16.549Z,7.13
2022-11-19T16:44:47.755Z,7.10
2022-11-19T16:47:22.747Z,6.28
2022-11-19T16:50:00.348Z,8.68
2022-11-19T16:52:40.712Z,8.98
2022-11-19T16:55:51.614Z,7.35
2022-11-19T16:58:29.132Z,8.87
2022-11-19T17:00:59.961Z,7.00
2022-11-19T17:03:41.394Z,8.07
2022-11-19T17:06:24.352Z,7.38
2022-11-19T17:08:58.335Z,6.95
2022-11-19T17:11:59.366Z,7.23
2022-11-19T17:14:47.249Z,7.07
2022-11-19T17:17:35.582Z,8.80
2022-11-19T17:20:41.289Z,9.93
2022-11-19T17:23:15.310Z,9.68
2022-11-19T17:25:49.537Z,10.00
2022-11-19T17:28:23.895Z,10.13
2022-11-19T17:30:53.511Z,11.18
2022-11-19T17:33:24.565Z,11.55
2022-11-19T17:35:54.342Z,8.85
2022-11-19T17:38:27.752Z,9.63
2022-11-19T17:40:59.110Z,9.68
2022-11-19T17:43:50.585Z,11.80
2022-11-19T17:46:20.987Z,9.35
2022-11-19T17:48:51.587Z,9.60
2022-11-19T17:51:23.609Z,9.87
2022-11-19T17:53:54.494Z,12.70
2022-11-19T17:56:26.867Z,11.02
2022-11-19T17:58:59.816Z,11.85
2022-11-19T18:01:29.554Z,13.63
2022-11-19T18:03:59.407Z,12.93
2022-11-19T18:06:28.756Z,14.95
2022-11-19T18:08:58.258Z,13.15
2022-11-19T18:11:28.007Z,13.18
2022-11-19T18:14:02.519Z,10.95
2022-11-19T18:16:35.177Z,13.30
2022-11-19T18:19:11.948Z,15.68
2022-11-19T18:21:42.558Z,14.07
2022-11-19T18:24:13.000Z,12.15
2022-11-19T18:26:42.347Z,14.20
2022-11-19T18:29:13.802Z,11.77
2022-11-19T18:31:45.413Z,10.60
2022-11-19T18:34:18.381Z,10.25
2022-11-19T18:36:48.128Z,11.45
2022-11-19T18:39:18.001Z,10.05
2022-11-19T18:41:47.466Z,9.70
2022-11-19T18:44:38.703Z,9.35
2022-11-19T18:47:10.381Z,8.63
2022-11-19T18:49:40.263Z,8.95
2022-11-19T18:52:12.464Z,9.93
2022-11-19T18:54:42.078Z,7.80
2022-11-19T18:57:12.290Z,9.25
2022-11-19T18:59:43.429Z,10.32
2022-11-19T19:02:13.179Z,9.85
2022-11-19T19:04:42.982Z,9.45
2022-11-19T19:07:13.735Z,9.43
2022-11-19T19:09:43.597Z,8.20
2022-11-19T19:12:19.334Z,10.60
2022-11-19T19:14:52.112Z,12.02
2022-11-19T19:17:21.561Z,10.63
2022-11-19T19:19:51.032Z,11.37
2022-11-19T19:22:21.221Z,11.07
2022-11-19T19:25:11.440Z,11.25
2022-11-19T19:27:40.814Z,10.82
2022-11-19T19:30:12.688Z,10.45
2022-11-19T19:32:42.038Z,12.37
2022-11-19T19:35:11.707Z,11.23
2022-11-19T19:37:42.657Z,11.38
2022-11-19T19:40:13.178Z,10.45
2022-11-19T19:42:42.657Z,16.33
2022-11-19T19:45:13.616Z,25.30
2022-11-19T19:47:42.915Z,43.35
2022-11-19T19:50:12.329Z,45.88
2022-11-19T19:52:41.707Z,40.63
2022-11-19T19:55:11.317Z,22.05
2022-11-19T19:57:40.677Z,21.57
2022-11-19T20:00:11.980Z,16.33
2022-11-19T20:02:45.548Z,12.32
2022-11-19T20:05:14.927Z,12.95
2022-11-19T20:07:44.290Z,11.90
2022-11-19T20:10:14.033Z,10.47
2022-11-19T20:13:00.820Z,10.77
2022-11-19T20:15:30.140Z,14.15
2022-11-19T20:18:01.015Z,14.30
2022-11-19T20:20:30.309Z,13.20
2022-11-19T20:22:59.601Z,13.37
2022-11-19T20:25:28.967Z,14.32
2022-11-19T20:27:58.257Z,13.25
2022-11-19T20:30:27.679Z,12.23
2022-11-19T20:32:57.079Z,15.43
2022-11-19T20:35:28.659Z,15.43
2022-11-19T20:38:02.225Z,12.93
2022-11-19T20:40:32.668Z,13.77
2022-11-19T20:43:19.459Z,20.02
2022-11-19T20:45:48.935Z,17.92
2022-11-19T20:48:19.566Z,21.70
2022-11-19T20:50:50.246Z,21.08
2022-11-19T20:53:19.626Z,19.63
2022-11-19T20:56:04.671Z,15.80
2022-11-19T20:58:35.494Z,16.58
2022-11-19T21:01:07.690Z,19.70
2022-11-19T21:03:37.063Z,18.45
2022-11-19T21:06:08.902Z,17.25
2022-11-19T21:08:38.523Z,18.30
2022-11-19T21:11:09.852Z,17.30
2022-11-19T21:13:39.836Z,19.53
2022-11-19T21:16:10.619Z,18.75
2022-11-19T21:18:42.789Z,17.55
2022-11-19T21:21:15.297Z,18.50
2022-11-19T21:23:50.616Z,15.30
2022-11-19T21:26:21.607Z,17.23
2022-11-19T21:28:53.217Z,15.18
2022-11-19T21:31:38.137Z,17.77
2022-11-19T21:34:08.807Z,18.02
2022-11-19T21:36:40.805Z,17.95
2022-11-19T21:39:11.040Z,18.90
2022-11-19T21:41:40.307Z,20.73
2022-11-19T21:44:09.994Z,15.05
2022-11-19T21:46:39.478Z,17.95
2022-11-19T21:49:08.810Z,20.17
2022-11-19T21:51:39.766Z,20.87
2022-11-19T21:54:09.153Z,19.60
2022-11-19T21:56:39.111Z,17.15
2022-11-19T21:59:08.726Z,18.33
2022-11-19T22:01:38.066Z,20.35
2022-11-19T22:04:07.405Z,16.27
2022-11-19T22:06:36.865Z,18.40
2022-11-19T22:09:07.608Z,18.77
2022-11-19T22:11:36.874Z,18.30
2022-11-19T22:14:07.478Z,19.25
2022-11-19T22:16:38.970Z,18.63
2022-11-19T22:19:08.477Z,17.48
2022-11-19T22:21:37.819Z,22.80
2022-11-19T22:24:08.847Z,20.23
2022-11-19T22:26:38.187Z,15.18
2022-11-19T22:29:07.590Z,17.43
2022-11-19T22:31:37.164Z,16.85
2022-11-19T22:34:06.566Z,17.77
2022-11-19T22:36:35.847Z,16.17
2022-11-19T22:39:05.307Z,17.67
2022-11-19T22:41:37.002Z,15.80
2022-11-19T22:44:06.688Z,15.68
2022-11-19T22:46:35.977Z,16.33
2022-11-19T22:49:05.314Z,16.20
2022-11-19T22:51:34.596Z,16.95
2022-11-19T22:54:04.054Z,15.87
2022-11-19T22:56:33.383Z,15.75
2022-11-19T22:59:04.188Z,17.77
2022-11-19T23:01:35.650Z,16.13
2022-11-19T23:04:07.217Z,19.80
2022-11-19T23:06:37.938Z,18.43
2022-11-19T23:09:08.189Z,17.38
2022-11-19T23:11:54.644Z,16.60
2022-11-19T23:14:25.676Z,16.35
2022-11-19T23:16:54.928Z,17.25
2022-11-19T23:19:24.565Z,17.77
2022-11-19T23:21:53.942Z,16.33
2022-11-19T23:24:23.223Z,19.85
2022-11-19T23:26:52.557Z,16.00
2022-11-19T23:29:22.186Z,18.38
2022-11-19T23:31:53.211Z,17.23
2022-11-19T23:34:22.460Z,15.93
2022-11-19T23:36:51.760Z,19.25
2022-11-19T23:39:21.287Z,17.05
2022-11-19T23:41:50.888Z,16.13
2022-11-19T23:44:20.273Z,16.63
2022-11-19T23:46:49.757Z,17.27
2022-11-19T23:49:21.060Z,18.00
2022-11-19T23:51:50.476Z,15.68
2022-11-19T23:54:19.724Z,16.20
2022-11-19T23:56:49.122Z,18.80
2022-11-19T23:59:23.015Z,16.98
